createdAt,value
2024-05-09T00:01:29.109Z,99886.53
2024-05-09T00:03:59.808Z,99880.66
2024-05-09T00:06:30.504Z,99880.25
2024-05-09T00:09:01.138Z,99884.06
2024-05-09T00:11:31.852Z,99887.53
2024-05-09T00:14:05.205Z,99883.91
2024-05-09T00:16:35.981Z,99876.22
2024-05-09T00:19:06.625Z,99887.13
2024-05-09T00:21:37.217Z,99887.50
2024-05-09T00:24:08.281Z,99882.66
2024-05-09T00:26:38.823Z,99876.22
2024-05-09T00:29:11.999Z,99895.09
2024-05-09T00:31:42.496Z,99890.25
2024-05-09T00:34:13.042Z,99894.25
2024-05-09T00:36:43.511Z,99889.53
2024-05-09T00:39:14.067Z,99893.78
2024-05-09T00:41:44.584Z,99883.25
2024-05-09T00:44:18.166Z,99885.28
2024-05-09T00:46:48.714Z,99880.22
2024-05-09T00:49:19.336Z,99881.03
2024-05-09T00:51:50.003Z,99874.13
2024-05-09T00:54:21.296Z,99868.31
2024-05-09T00:56:52.475Z,99873.50
2024-05-09T00:59:26.887Z,99868.28
2024-05-09T01:01:57.630Z,99867.56
2024-05-09T01:04:28.213Z,99869.34
2024-05-09T01:06:58.774Z,99874.94
2024-05-09T01:09:29.331Z,99877.13
2024-05-09T01:11:59.874Z,99870.91
2024-05-09T01:14:33.137Z,99875.69
2024-05-09T01:17:03.605Z,99878.50
2024-05-09T01:19:34.559Z,99876.03
2024-05-09T01:22:07.850Z,99879.00
2024-05-09T01:24:40.981Z,99883.44
2024-05-09T01:27:12.469Z,99879.75
2024-05-09T01:29:42.940Z,99879.94
2024-05-09T01:32:13.675Z,99869.50
2024-05-09T01:34:44.252Z,99868.69
2024-05-09T01:37:14.775Z,99865.63
2024-05-09T01:39:47.924Z,99873.06
2024-05-09T01:42:18.670Z,99869.41
2024-05-09T01:44:49.085Z,99872.59
2024-05-09T01:47:19.732Z,99876.38
2024-05-09T01:49:50.262Z,99874.41
2024-05-09T01:52:20.904Z,99874.28
2024-05-09T01:54:54.092Z,99881.50
2024-05-09T01:57:24.519Z,99881.72
2024-05-09T01:59:54.902Z,99876.28
2024-05-09T02:02:25.555Z,99878.38
2024-05-09T02:04:56.390Z,99877.56
2024-05-09T02:07:27.980Z,99878.13
2024-05-09T02:10:01.087Z,99874.34
2024-05-09T02:12:31.722Z,99881.72
2024-05-09T02:15:02.177Z,99876.88
2024-05-09T02:17:32.763Z,99876.06
2024-05-09T02:20:03.694Z,99875.78
2024-05-09T02:22:36.296Z,99875.91
2024-05-09T02:25:09.747Z,99874.81
2024-05-09T02:27:40.193Z,99873.03
2024-05-09T02:30:18.968Z,99870.44
2024-05-09T02:32:56.722Z,99868.00
2024-05-09T02:35:27.347Z,99876.81
2024-05-09T02:37:55.259Z,99874.78
2024-05-09T02:40:36.275Z,99880.78
2024-05-09T02:43:06.720Z,99881.25
2024-05-09T02:45:37.470Z,99876.59
2024-05-09T02:48:06.976Z,99877.00
2024-05-09T02:50:39.703Z,99883.44
2024-05-09T02:53:08.896Z,99880.63
2024-05-09T02:55:45.943Z,99878.03
2024-05-09T02:58:13.828Z,99883.59
2024-05-09T03:00:44.419Z,99880.81
2024-05-09T03:03:14.499Z,99891.59
2024-05-09T03:05:46.792Z,99885.75
2024-05-09T03:08:15.077Z,99878.03
2024-05-09T03:10:48.656Z,99900.97
2024-05-09T03:13:16.742Z,99893.59
2024-05-09T03:15:47.372Z,99889.81
2024-05-09T03:18:15.594Z,99875.50
2024-05-09T03:20:46.432Z,99884.03
2024-05-09T03:23:14.349Z,99889.91
2024-05-09T03:25:44.923Z,99886.50
2024-05-09T03:28:15.427Z,99890.63
2024-05-09T03:30:45.908Z,99887.84
2024-05-09T03:33:15.400Z,99884.22
2024-05-09T03:35:47.382Z,99894.47
2024-05-09T03:38:18.385Z,99881.97
2024-05-09T03:40:50.217Z,99891.44
2024-05-09T03:43:23.951Z,99882.63
2024-05-09T03:45:54.397Z,99888.53
2024-05-09T03:48:22.468Z,99886.47
2024-05-09T03:50:53.259Z,99885.88
2024-05-09T03:53:22.929Z,99879.38
2024-05-09T03:55:53.477Z,99880.84
2024-05-09T03:58:23.952Z,99887.56
2024-05-09T04:00:54.459Z,99900.44
2024-05-09T04:03:22.574Z,99892.25
2024-05-09T04:05:53.280Z,99887.03
2024-05-09T04:08:21.295Z,99891.72
2024-05-09T04:10:51.897Z,99896.94
2024-05-09T04:13:19.728Z,99892.88
2024-05-09T04:15:52.914Z,99901.13
2024-05-09T04:18:20.918Z,99901.84
2024-05-09T04:20:51.461Z,99898.53
2024-05-09T04:23:19.337Z,99896.75
2024-05-09T04:25:49.895Z,99902.59
2024-05-09T04:28:17.902Z,99903.31
2024-05-09T04:30:48.336Z,99897.00
2024-05-09T04:33:20.217Z,99894.94
2024-05-09T04:35:51.326Z,99894.75
2024-05-09T04:38:19.342Z,99890.44
2024-05-09T04:40:50.004Z,99890.88
2024-05-09T04:43:19.562Z,99891.88
2024-05-09T04:45:50.210Z,99900.16
2024-05-09T04:48:20.812Z,99893.78
2024-05-09T04:50:51.538Z,99892.44
2024-05-09T04:53:19.483Z,99893.50
2024-05-09T04:55:50.113Z,99896.50
2024-05-09T04:58:17.988Z,99901.34
2024-05-09T05:00:48.486Z,99904.66
2024-05-09T05:03:16.974Z,99902.44
2024-05-09T05:05:50.631Z,99910.59
2024-05-09T05:08:19.348Z,99910.16
2024-05-09T05:10:50.540Z,99904.28
2024-05-09T05:13:23.723Z,99911.69
2024-05-09T05:15:57.512Z,99907.63
2024-05-09T05:18:27.519Z,99911.50
2024-05-09T05:21:01.094Z,99904.66
2024-05-09T05:23:29.013Z,99907.91
2024-05-09T05:25:59.552Z,99912.84
2024-05-09T05:28:27.525Z,99912.59
2024-05-09T05:30:57.970Z,99915.56
2024-05-09T05:33:25.934Z,99911.41
2024-05-09T05:35:57.238Z,99910.78
2024-05-09T05:38:28.617Z,99904.66
2024-05-09T05:40:59.499Z,99905.75
2024-05-09T05:43:27.570Z,99909.88
2024-05-09T05:45:58.175Z,99915.38
2024-05-09T05:48:26.194Z,99915.09
2024-05-09T05:50:56.812Z,99915.03
2024-05-09T05:53:27.425Z,99919.31
2024-05-09T05:55:57.999Z,99925.34
2024-05-09T05:58:25.932Z,99925.72
2024-05-09T06:00:56.735Z,99919.66
2024-05-09T06:03:24.705Z,99917.91
2024-05-09T06:05:55.261Z,99920.00
2024-05-09T06:08:24.165Z,99915.47
2024-05-09T06:10:58.506Z,99919.44
2024-05-09T06:13:26.431Z,99920.50
2024-05-09T06:15:56.968Z,99917.25
2024-05-09T06:18:25.286Z,99920.69
2024-05-09T06:20:55.978Z,99916.09
2024-05-09T06:23:23.903Z,99917.59
2024-05-09T06:25:54.441Z,99915.50
2024-05-09T06:28:24.921Z,99921.59
2024-05-09T06:30:55.391Z,99918.78
2024-05-09T06:33:23.412Z,99911.88
2024-05-09T06:35:59.136Z,99913.25
2024-05-09T06:38:27.174Z,99905.75
2024-05-09T06:40:58.157Z,99910.38
2024-05-09T06:43:28.670Z,99908.31
2024-05-09T06:45:59.143Z,99906.09
2024-05-09T06:48:27.228Z,99906.19
2024-05-09T06:50:57.893Z,99908.19
2024-05-09T06:53:25.894Z,99908.38
2024-05-09T06:55:56.472Z,99905.88
2024-05-09T06:58:24.322Z,99900.88
2024-05-09T07:00:57.636Z,99906.34
2024-05-09T07:03:25.774Z,99904.00
2024-05-09T07:05:56.396Z,99911.72
2024-05-09T07:08:24.436Z,99915.34
2024-05-09T07:10:55.082Z,99908.50
2024-05-09T07:13:23.092Z,99916.53
2024-05-09T07:15:53.646Z,99907.47
2024-05-09T07:18:24.390Z,99900.38
2024-05-09T07:20:54.975Z,99893.34
2024-05-09T07:23:22.874Z,99890.91
2024-05-09T07:25:53.434Z,99893.91
2024-05-09T07:28:21.470Z,99895.09
2024-05-09T07:30:52.023Z,99893.91
2024-05-09T07:33:22.533Z,99898.47
2024-05-09T07:35:57.013Z,99893.41
2024-05-09T07:38:27.526Z,99888.44
2024-05-09T07:40:55.545Z,99889.81
2024-05-09T07:43:27.955Z,99882.81
2024-05-09T07:45:58.262Z,99883.28
2024-05-09T07:50:01.410Z,99883.84
2024-05-09T07:53:58.273Z,99884.97
2024-05-09T07:56:28.596Z,99875.03
2024-05-09T07:58:59.334Z,99875.56
2024-05-09T08:01:27.598Z,99867.41
2024-05-09T08:03:58.584Z,99860.34
2024-05-09T08:06:29.231Z,99859.97
2024-05-09T08:09:05.153Z,99847.47
2024-05-09T08:11:35.854Z,99857.28
2024-05-09T08:14:06.440Z,99850.41
2024-05-09T08:16:34.280Z,99862.69
2024-05-09T08:19:05.407Z,99860.25
2024-05-09T08:21:36.118Z,99848.47
2024-05-09T08:24:06.881Z,99846.81
2024-05-09T08:26:34.726Z,99847.34
2024-05-09T08:29:05.300Z,99850.03
2024-05-09T08:31:37.311Z,99856.16
2024-05-09T08:34:08.522Z,99856.03
2024-05-09T08:36:40.808Z,99847.13
2024-05-09T08:39:11.333Z,99850.25
2024-05-09T08:41:42.145Z,99849.75
2024-05-09T08:44:12.755Z,99836.94
2024-05-09T08:46:41.442Z,99842.06
2024-05-09T08:49:12.093Z,99840.25
2024-05-09T08:51:42.944Z,99831.19
2024-05-09T08:54:13.720Z,99832.16
2024-05-09T08:56:45.838Z,99838.47
2024-05-09T08:59:20.710Z,99838.28
2024-05-09T09:01:48.962Z,99836.28
2024-05-09T09:04:19.952Z,99832.69
2024-05-09T09:06:53.112Z,99831.25
2024-05-09T09:09:23.798Z,99836.59
2024-05-09T09:11:51.814Z,99831.34
2024-05-09T09:14:22.345Z,99834.47
2024-05-09T09:16:51.802Z,99834.31
2024-05-09T09:19:22.502Z,99828.69
2024-05-09T09:21:55.811Z,99821.25
2024-05-09T09:24:23.722Z,99832.50
2024-05-09T09:26:54.278Z,99829.31
2024-05-09T09:29:22.444Z,99829.94
2024-05-09T09:32:00.952Z,99819.47
2024-05-09T09:34:30.263Z,99826.97
2024-05-09T09:37:06.838Z,99825.94
2024-05-09T09:39:35.832Z,99819.34
2024-05-09T09:42:07.896Z,99824.97
2024-05-09T09:44:39.467Z,99824.34
2024-05-09T09:47:11.658Z,99831.59
2024-05-09T09:49:40.137Z,99815.00
2024-05-09T09:52:13.691Z,99824.94
2024-05-09T09:54:42.144Z,99815.16
2024-05-09T09:57:12.744Z,99819.28
2024-05-09T09:59:43.472Z,99811.09
2024-05-09T10:02:14.483Z,99815.59
2024-05-09T10:04:42.652Z,99817.16
2024-05-09T10:07:16.307Z,99808.28
2024-05-09T10:09:44.428Z,99807.31
2024-05-09T10:12:16.715Z,99811.00
2024-05-09T10:14:48.426Z,99806.81
2024-05-09T10:17:20.235Z,99810.25
2024-05-09T10:19:48.480Z,99801.16
2024-05-09T10:22:31.773Z,99805.69
2024-05-09T10:25:05.352Z,99799.44
2024-05-09T10:27:36.356Z,99811.72
2024-05-09T10:30:11.360Z,99805.50
2024-05-09T10:32:45.219Z,99806.78
2024-05-09T10:35:15.102Z,99797.91
2024-05-09T10:37:48.421Z,99794.38
2024-05-09T10:40:23.407Z,99792.78
2024-05-09T10:43:02.552Z,99795.06
2024-05-09T10:45:32.749Z,99797.75
2024-05-09T10:48:03.557Z,99792.50
2024-05-09T10:50:34.254Z,99791.97
2024-05-09T10:53:08.089Z,99788.00
2024-05-09T10:55:35.994Z,99778.94
2024-05-09T10:58:06.826Z,99780.25
2024-05-09T11:00:36.506Z,99776.50
2024-05-09T11:03:08.093Z,99769.84
2024-05-09T11:05:36.381Z,99767.34
2024-05-09T11:08:10.484Z,99771.03
2024-05-09T11:10:38.930Z,99757.53
2024-05-09T11:13:09.639Z,99770.41
2024-05-09T11:15:39.094Z,99776.50
2024-05-09T11:18:09.904Z,99772.00
2024-05-09T11:20:38.396Z,99769.44
2024-05-09T11:23:11.929Z,99763.28
2024-05-09T11:25:39.965Z,99759.25
2024-05-09T11:28:10.624Z,99760.88
2024-05-09T11:30:38.636Z,99755.44
2024-05-09T11:33:09.397Z,99757.44
2024-05-09T11:35:37.489Z,99752.13
2024-05-09T11:38:08.255Z,99742.34
2024-05-09T11:40:41.885Z,99745.63
2024-05-09T11:43:10.078Z,99749.06
2024-05-09T11:45:40.818Z,99745.25
2024-05-09T11:48:09.276Z,99748.22
2024-05-09T11:50:39.929Z,99743.91
2024-05-09T11:53:07.915Z,99746.25
2024-05-09T11:55:41.122Z,99740.59
2024-05-09T11:58:09.240Z,99735.91
2024-05-09T12:00:39.993Z,99730.06
2024-05-09T12:03:08.089Z,99723.03
2024-05-09T12:05:38.881Z,99722.41
2024-05-09T12:08:07.483Z,99720.59
2024-05-09T12:10:38.259Z,99713.66
2024-05-09T12:13:09.089Z,99715.22
2024-05-09T12:15:39.718Z,99713.66
2024-05-09T12:18:08.333Z,99716.09
2024-05-09T12:20:40.215Z,99712.34
2024-05-09T12:23:10.116Z,99715.69
2024-05-09T12:25:41.883Z,99711.88
2024-05-09T12:28:12.563Z,99709.78
2024-05-09T12:30:43.235Z,99711.94
2024-05-09T12:33:13.127Z,99700.81
2024-05-09T12:35:46.676Z,99696.00
2024-05-09T12:38:16.301Z,99695.78
2024-05-09T12:40:46.901Z,99699.06
2024-05-09T12:43:18.002Z,99693.75
2024-05-09T12:45:48.654Z,99687.13
2024-05-09T12:48:16.849Z,99686.56
2024-05-09T12:50:47.586Z,99691.09
2024-05-09T12:53:15.687Z,99684.13
2024-05-09T12:55:53.587Z,99694.41
2024-05-09T12:58:27.876Z,99688.28
2024-05-09T13:00:58.773Z,99689.81
2024-05-09T13:03:26.861Z,99687.97
2024-05-09T13:05:57.676Z,99680.53
2024-05-09T13:08:25.782Z,99676.84
2024-05-09T13:10:56.464Z,99671.00
2024-05-09T13:13:24.505Z,99673.38
2024-05-09T13:15:57.979Z,99667.63
2024-05-09T13:18:28.723Z,99666.59
2024-05-09T13:20:56.742Z,99668.41
2024-05-09T13:23:27.456Z,99663.56
2024-05-09T13:25:55.472Z,99666.13
2024-05-09T13:28:26.089Z,99657.00
2024-05-09T13:30:56.786Z,99658.38
2024-05-09T13:33:27.522Z,99659.50
2024-05-09T13:35:55.604Z,99648.59
2024-05-09T13:38:26.190Z,99647.00
2024-05-09T13:40:54.331Z,99643.91
2024-05-09T13:43:25.617Z,99653.88
2024-05-09T13:45:57.413Z,99647.00
2024-05-09T13:48:28.437Z,99641.97
2024-05-09T13:50:57.134Z,99637.44
2024-05-09T13:53:27.738Z,99644.06
2024-05-09T13:55:55.836Z,99632.34
2024-05-09T13:58:26.637Z,99638.97
2024-05-09T14:00:58.310Z,99637.91
2024-05-09T14:03:29.958Z,99628.91
2024-05-09T14:05:58.337Z,99620.16
2024-05-09T14:08:29.067Z,99621.72
2024-05-09T14:10:57.098Z,99623.44
2024-05-09T14:13:27.713Z,99619.34
2024-05-09T14:15:58.691Z,99618.06
2024-05-09T14:18:29.505Z,99613.06
2024-05-09T14:20:57.538Z,99607.78
2024-05-09T14:23:28.164Z,99597.03
2024-05-09T14:25:56.422Z,99596.03
2024-05-09T14:28:27.987Z,99598.47
2024-05-09T14:31:00.358Z,99601.13
2024-05-09T14:33:31.304Z,99595.00
2024-05-09T14:35:59.474Z,99592.06
2024-05-09T14:38:30.437Z,99592.88
2024-05-09T14:40:58.713Z,99583.56
2024-05-09T14:43:29.488Z,99579.63
2024-05-09T14:46:00.209Z,99584.13
2024-05-09T14:48:31.112Z,99582.03
2024-05-09T14:50:59.101Z,99575.38
2024-05-09T14:53:29.704Z,99575.91
2024-05-09T14:55:57.867Z,99574.56
2024-05-09T14:58:28.498Z,99570.28
2024-05-09T15:00:56.529Z,99575.50
2024-05-09T15:03:30.063Z,99577.38
2024-05-09T15:05:58.646Z,99562.56
2024-05-09T15:08:29.384Z,99561.47
2024-05-09T15:10:57.796Z,99559.09
2024-05-09T15:13:28.812Z,99563.41
2024-05-09T15:15:56.968Z,99551.97
2024-05-09T15:18:30.384Z,99549.06
2024-05-09T15:20:58.613Z,99551.72
2024-05-09T15:23:29.195Z,99546.41
2024-05-09T15:25:57.120Z,99551.44
2024-05-09T15:28:27.620Z,99546.63
2024-05-09T15:30:55.657Z,99553.78
2024-05-09T15:33:27.870Z,99551.09
2024-05-09T15:35:58.508Z,99545.97
2024-05-09T15:38:29.082Z,99547.56
2024-05-09T15:40:57.042Z,99543.03
2024-05-09T15:43:28.232Z,99546.25
2024-05-09T15:45:56.457Z,99544.38
2024-05-09T15:48:27.392Z,99538.50
2024-05-09T15:50:55.480Z,99529.50
2024-05-09T15:53:29.202Z,99529.47
2024-05-09T15:55:57.089Z,99527.91
2024-05-09T15:58:27.729Z,99531.06
2024-05-09T16:00:55.913Z,99526.31
2024-05-09T16:03:26.707Z,99526.06
2024-05-09T16:05:57.553Z,99528.69
2024-05-09T16:08:30.852Z,99531.59
2024-05-09T16:10:59.322Z,99525.25
2024-05-09T16:13:29.884Z,99523.38
2024-05-09T16:15:57.925Z,99522.28
2024-05-09T16:18:28.613Z,99522.25
2024-05-09T16:21:00.197Z,99524.13
2024-05-09T16:23:33.546Z,99515.06
2024-05-09T16:26:01.456Z,99520.34
2024-05-09T16:28:32.169Z,99515.00
2024-05-09T16:31:01.548Z,99523.44
2024-05-09T16:33:32.433Z,99523.50
2024-05-09T16:36:00.620Z,99500.66
2024-05-09T16:38:33.860Z,99516.63
2024-05-09T16:41:01.962Z,99520.63
2024-05-09T16:43:32.687Z,99510.78
2024-05-09T16:46:01.216Z,99516.06
2024-05-09T16:48:32.075Z,99517.69
2024-05-09T16:51:00.104Z,99511.63
2024-05-09T16:53:33.365Z,99508.66
2024-05-09T16:56:02.397Z,99517.16
2024-05-09T16:58:33.157Z,99516.88
2024-05-09T17:01:01.211Z,99507.88
2024-05-09T17:03:31.993Z,99505.47
2024-05-09T17:06:03.249Z,99505.47
2024-05-09T17:08:37.612Z,99509.19
2024-05-09T17:11:05.696Z,99505.97
2024-05-09T17:13:39.289Z,99509.91
2024-05-09T17:16:11.120Z,99512.56
2024-05-09T17:18:42.004Z,99510.19
2024-05-09T17:21:12.505Z,99507.00
2024-05-09T17:23:43.184Z,99507.50
2024-05-09T17:26:13.756Z,99511.75
2024-05-09T17:28:41.642Z,99508.53
2024-05-09T17:31:12.626Z,99509.91
2024-05-09T17:33:40.873Z,99510.44
2024-05-09T17:36:11.594Z,99518.06
2024-05-09T17:38:39.482Z,99515.97
2024-05-09T17:41:12.665Z,99511.75
2024-05-09T17:43:40.584Z,99519.97
2024-05-09T17:46:11.145Z,99517.31
2024-05-09T17:48:39.362Z,99525.47
2024-05-09T17:51:10.018Z,99515.91
2024-05-09T17:53:40.027Z,99520.13
2024-05-09T17:56:13.506Z,99520.91
2024-05-09T17:58:41.620Z,99521.69
2024-05-09T18:01:12.549Z,99510.22
2024-05-09T18:03:40.698Z,99518.69
2024-05-09T18:06:11.428Z,99514.16
2024-05-09T18:08:39.417Z,99517.78
2024-05-09T18:11:10.172Z,99520.97
2024-05-09T18:13:40.855Z,99514.63
2024-05-09T18:16:11.475Z,99516.63
2024-05-09T18:18:39.683Z,99517.31
2024-05-09T18:21:10.236Z,99514.88
2024-05-09T18:23:38.258Z,99523.34
2024-05-09T18:26:09.074Z,99527.81
2024-05-09T18:28:36.989Z,99521.91
2024-05-09T18:31:10.340Z,99519.47
2024-05-09T18:33:38.523Z,99523.88
2024-05-09T18:36:10.478Z,99519.59
2024-05-09T18:38:39.418Z,99500.84
2024-05-09T18:41:10.093Z,99517.78
2024-05-09T18:43:44.654Z,99523.00
2024-05-09T18:46:19.000Z,99523.47
2024-05-09T18:48:47.189Z,99523.56
2024-05-09T18:51:17.762Z,99528.22
2024-05-09T18:53:46.315Z,99522.31
2024-05-09T18:56:17.035Z,99526.69
2024-05-09T18:58:45.286Z,99534.00
2024-05-09T19:01:18.568Z,99539.38
2024-05-09T19:03:48.484Z,99540.84
2024-05-09T19:06:22.788Z,99543.56
2024-05-09T19:08:52.516Z,99548.91
2024-05-09T19:11:23.186Z,99545.53
2024-05-09T19:13:51.129Z,99551.78
2024-05-09T19:16:24.356Z,99551.03
2024-05-09T19:18:53.855Z,99549.94
2024-05-09T19:21:24.498Z,99557.44
2024-05-09T19:23:52.682Z,99566.66
2024-05-09T19:26:23.220Z,99566.66
2024-05-09T19:28:52.046Z,99557.13
2024-05-09T19:31:25.552Z,99573.44
2024-05-09T19:33:53.711Z,99569.47
2024-05-09T19:36:24.296Z,99569.94
2024-05-09T19:38:52.290Z,99568.47
2024-05-09T19:41:22.936Z,99575.84
2024-05-09T19:43:51.067Z,99575.75
2024-05-09T19:46:22.054Z,99571.41
2024-05-09T19:48:52.847Z,99575.47
2024-05-09T19:51:23.505Z,99572.94
2024-05-09T19:53:51.472Z,99570.31
2024-05-09T19:56:22.083Z,99576.03
2024-05-09T19:58:49.999Z,99573.41
2024-05-09T20:01:20.980Z,99582.94
2024-05-09T20:03:49.345Z,99579.13
2024-05-09T20:06:24.519Z,99579.59
2024-05-09T20:08:57.086Z,99584.06
2024-05-09T20:11:28.778Z,99583.13
2024-05-09T20:13:58.427Z,99580.50
2024-05-09T20:16:28.959Z,99579.34
2024-05-09T20:18:57.154Z,99578.63
2024-05-09T20:21:30.472Z,99583.22
2024-05-09T20:23:58.402Z,99580.91
2024-05-09T20:26:30.949Z,99579.53
2024-05-09T20:28:59.051Z,99580.66
2024-05-09T20:31:29.685Z,99576.88
2024-05-09T20:33:57.683Z,99577.66
2024-05-09T20:36:30.870Z,99584.63
2024-05-09T20:38:58.907Z,99574.19
2024-05-09T20:41:29.437Z,99576.22
2024-05-09T20:44:00.611Z,99563.94
2024-05-09T20:46:31.231Z,99581.03
2024-05-09T20:48:59.260Z,99580.38
2024-05-09T20:51:32.988Z,99580.97
2024-05-09T20:54:00.916Z,99584.28
2024-05-09T20:56:31.425Z,99579.09
2024-05-09T20:58:59.346Z,99589.97
2024-05-09T21:01:29.960Z,99588.50
2024-05-09T21:03:58.064Z,99582.66
2024-05-09T21:06:28.757Z,99590.91
2024-05-09T21:08:59.278Z,99587.16
2024-05-09T21:11:29.818Z,99584.53
2024-05-09T21:13:57.949Z,99588.00
2024-05-09T21:16:28.606Z,99583.56
2024-05-09T21:18:56.585Z,99588.31
2024-05-09T21:21:27.115Z,99588.53
2024-05-09T21:23:54.957Z,99591.75
2024-05-09T21:26:29.497Z,99589.34
2024-05-09T21:28:57.355Z,99589.56
2024-05-09T21:31:27.994Z,99583.94
2024-05-09T21:33:56.167Z,99588.19
2024-05-09T21:36:26.717Z,99588.03
2024-05-09T21:38:54.652Z,99590.88
2024-05-09T21:41:27.883Z,99589.97
2024-05-09T21:43:55.893Z,99590.72
2024-05-09T21:46:26.654Z,99587.94
2024-05-09T21:48:55.606Z,99585.97
2024-05-09T21:51:26.193Z,99592.03
2024-05-09T21:53:54.045Z,99592.75
2024-05-09T21:56:24.700Z,99588.59
2024-05-09T21:58:55.272Z,99583.19
2024-05-09T22:01:25.866Z,99589.91
2024-05-09T22:03:54.069Z,99590.28
2024-05-09T22:06:24.816Z,99591.03
2024-05-09T22:08:52.673Z,99580.25
2024-05-09T22:11:23.251Z,99589.44
2024-05-09T22:13:51.190Z,99584.25
2024-05-09T22:16:24.646Z,99577.81
2024-05-09T22:18:55.386Z,99575.19
2024-05-09T22:21:23.405Z,99574.97
2024-05-09T22:23:54.658Z,99580.25
2024-05-09T22:26:22.592Z,99577.06
2024-05-09T22:28:53.078Z,99580.38
2024-05-09T22:31:23.731Z,99578.59
2024-05-09T22:33:54.587Z,99578.81
2024-05-09T22:36:22.673Z,99581.81
2024-05-09T22:38:53.165Z,99579.84
2024-05-09T22:41:20.989Z,99582.50
2024-05-09T22:43:51.482Z,99581.69
2024-05-09T22:46:19.400Z,99589.25
2024-05-09T22:48:52.659Z,99587.00
2024-05-09T22:51:20.641Z,99586.22
2024-05-09T22:53:51.355Z,99591.91
2024-05-09T22:56:26.354Z,99593.75
2024-05-09T22:58:56.974Z,99588.06
2024-05-09T23:01:26.707Z,99590.13
2024-05-09T23:04:00.248Z,99592.94
2024-05-09T23:06:28.394Z,99594.41
2024-05-09T23:08:58.912Z,99592.22
2024-05-09T23:11:26.951Z,99588.81
2024-05-09T23:13:57.562Z,99598.47
2024-05-09T23:16:25.683Z,99600.53
2024-05-09T23:18:56.441Z,99594.09
2024-05-09T23:21:27.088Z,99598.38
2024-05-09T23:23:57.684Z,99596.56
2024-05-09T23:26:25.696Z,99593.34
2024-05-09T23:28:56.229Z,99597.81
2024-05-09T23:31:24.322Z,99596.22
2024-05-09T23:33:55.389Z,99600.63
2024-05-09T23:36:23.397Z,99608.34
2024-05-09T23:38:56.583Z,99596.66
2024-05-09T23:41:24.611Z,99599.06
2024-05-09T23:43:55.211Z,99598.69
2024-05-09T23:46:23.369Z,99596.69
2024-05-09T23:48:54.437Z,99597.09
2024-05-09T23:51:22.513Z,99590.84
2024-05-09T23:53:53.214Z,99584.19
2024-05-09T23:56:23.851Z,99597.69
2024-05-09T23:58:54.440Z,99590.81
